Time;durP1;ratioP1;P1;durP2;ratioP2;P2;SDS_P1;SDS_P2;PMS_P1;PMS_P2;Temp;Humidity;BMP_temperature;BMP_pressure;BME280_temperature;BME280_humidity;BME280_pressure;Samples;Min_cycle;Max_cycle;Signal;HPM_P1;HPM_P2
2022/05/14 00:01:24;;;;;;;8.77;5.10;;;;;;;;;;4899069;29;20414;-69
2022/05/14 00:03:50;;;;;;;8.38;5.53;;;;;;;;;;4898733;29;20029;-68
2022/05/14 00:06:18;;;;;;;8.77;5.32;;;;;;;;;;4898882;29;20025;-68
2022/05/14 00:08:45;;;;;;;8.48;5.43;;;;;;;;;;4898560;29;20035;-68
2022/05/14 00:13:57;;;;;;;8.60;5.13;;;;;;;;;;4884724;29;20032;-68
2022/05/14 00:16:24;;;;;;;12.07;5.57;;;;;;;;;;4899007;29;20032;-69
2022/05/14 00:18:54;;;;;;;13.10;5.90;;;;;;;;;;4898615;29;20397;-68
2022/05/14 00:21:22;;;;;;;9.07;5.27;;;;;;;;;;4898508;29;20048;-69
2022/05/14 00:23:48;;;;;;;8.80;5.50;;;;;;;;;;4898357;29;20394;-69
2022/05/14 00:26:14;;;;;;;10.57;5.45;;;;;;;;;;4898606;29;20039;-68
2022/05/14 00:28:41;;;;;;;7.53;5.28;;;;;;;;;;4898195;29;20025;-68
2022/05/14 00:31:07;;;;;;;7.97;4.88;;;;;;;;;;4899510;29;20035;-69
2022/05/14 00:33:34;;;;;;;9.77;5.60;;;;;;;;;;4897987;29;20036;-68
2022/05/14 00:36:00;;;;;;;9.90;6.07;;;;;;;;;;4898353;29;20398;-69
2022/05/14 00:38:26;;;;;;;8.27;5.10;;;;;;;;;;4898358;29;20024;-68
2022/05/14 00:40:57;;;;;;;6.88;4.75;;;;;;;;;;4898239;29;20409;-68
2022/05/14 00:43:25;;;;;;;;;;;;;;;;;;4899045;29;20042;-69
2022/05/14 00:45:53;;;;;;;9.50;5.30;;;;;;;;;;4898364;29;19919;-69
2022/05/14 00:48:20;;;;;;;10.80;4.82;;;;;;;;;;4897510;29;20036;-69
2022/05/14 00:50:55;;;;;;;7.38;5.40;;;;;;;;;;4897853;29;20040;-69
2022/05/14 00:53:23;;;;;;;8.70;5.95;;;;;;;;;;4897877;29;20494;-69
2022/05/14 00:55:51;;;;;;;6.82;5.20;;;;;;;;;;4898241;29;20024;-68
2022/05/14 00:58:20;;;;;;;11.32;5.68;;;;;;;;;;4898295;29;20482;-68
2022/05/14 01:00:46;;;;;;;8.05;5.68;;;;;;;;;;4898032;29;20033;-68
2022/05/14 01:03:13;;;;;;;12.43;5.53;;;;;;;;;;4897262;29;20023;-68
2022/05/14 01:05:39;;;;;;;12.10;6.10;;;;;;;;;;4897870;29;20032;-68
2022/05/14 01:08:06;;;;;;;8.80;5.60;;;;;;;;;;4897474;29;20029;-68
2022/05/14 01:10:37;;;;;;;7.97;5.07;;;;;;;;;;4897647;29;20398;-68
2022/05/14 01:13:03;;;;;;;;;;;;;;;;;;4896798;29;20405;-68
2022/05/14 01:15:52;;;;;;;9.55;5.28;;;;;;;;;;4897634;29;19911;-68
2022/05/14 01:18:22;;;;;;;13.15;6.25;;;;;;;;;;4896991;29;20028;-69
2022/05/14 01:21:11;;;;;;;11.80;6.00;;;;;;;;;;4897193;29;20051;-68
2022/05/14 01:26:46;;;;;;;10.80;6.03;;;;;;;;;;4897141;29;20039;-69
2022/05/14 01:29:16;;;;;;;9.02;5.50;;;;;;;;;;4897457;29;20393;-69
2022/05/14 01:31:43;;;;;;;10.70;6.07;;;;;;;;;;4896924;29;20028;-69
2022/05/14 01:34:11;;;;;;;8.00;5.20;;;;;;;;;;4897669;29;20379;-68
2022/05/14 01:36:38;;;;;;;6.85;5.53;;;;;;;;;;4897084;29;20028;-69
2022/05/14 01:39:05;;;;;;;9.45;6.15;;;;;;;;;;4897043;29;20028;-68
2022/05/14 01:41:31;;;;;;;9.20;5.70;;;;;;;;;;4897315;29;20020;-68
2022/05/14 01:43:58;;;;;;;9.45;5.85;;;;;;;;;;4897176;29;20020;-68
2022/05/14 01:46:24;;;;;;;10.45;5.70;;;;;;;;;;4896922;29;20043;-68
2022/05/14 01:48:51;;;;;;;8.90;5.55;;;;;;;;;;4897642;29;20028;-68
2022/05/14 01:51:17;;;;;;;9.27;5.70;;;;;;;;;;4897117;29;20016;-68
2022/05/14 01:53:43;;;;;;;8.32;5.68;;;;;;;;;;4896729;29;20055;-68
2022/05/14 01:56:10;;;;;;;13.75;6.00;;;;;;;;;;4897201;29;20021;-69
2022/05/14 01:58:36;;;;;;;8.85;5.75;;;;;;;;;;4897075;29;20051;-68
2022/05/14 02:01:14;;;;;;;10.38;5.65;;;;;;;;;;4897075;29;20035;-68
2022/05/14 02:03:41;;;;;;;9.85;6.03;;;;;;;;;;4896652;29;20508;-69
2022/05/14 02:06:08;;;;;;;10.93;5.78;;;;;;;;;;4896819;29;20024;-69
2022/05/14 02:08:34;;;;;;;9.43;6.28;;;;;;;;;;4896658;29;20016;-68
2022/05/14 02:11:01;;;;;;;9.77;5.97;;;;;;;;;;4896813;29;20059;-69
2022/05/14 02:13:28;;;;;;;13.73;6.05;;;;;;;;;;4896966;29;20034;-68
2022/05/14 02:15:55;;;;;;;10.93;6.13;;;;;;;;;;4895987;29;20041;-69
2022/05/14 02:18:22;;;;;;;10.73;6.32;;;;;;;;;;4896870;29;20028;-68
2022/05/14 02:20:48;;;;;;;11.52;5.43;;;;;;;;;;4913537;29;20037;-69
2022/05/14 02:23:15;;;;;;;7.20;6.05;;;;;;;;;;4900936;29;20031;-68
2022/05/14 02:25:42;;;;;;;11.20;5.78;;;;;;;;;;4900491;29;20037;-69
2022/05/14 02:28:08;;;;;;;10.25;6.38;;;;;;;;;;4900953;29;20025;-68
2022/05/14 02:30:34;;;;;;;7.90;6.28;;;;;;;;;;4900399;29;20021;-69
2022/05/14 02:33:00;;;;;;;7.30;6.13;;;;;;;;;;4900200;29;20035;-69
2022/05/14 02:35:27;;;;;;;9.05;6.15;;;;;;;;;;4900371;29;20397;-68
2022/05/14 02:37:53;;;;;;;11.23;6.63;;;;;;;;;;4900685;29;20020;-68
2022/05/14 02:40:21;;;;;;;8.27;5.68;;;;;;;;;;4900816;29;20038;-69
2022/05/14 02:42:47;;;;;;;10.10;6.13;;;;;;;;;;4900420;29;20039;-68
2022/05/14 02:45:14;;;;;;;10.10;6.15;;;;;;;;;;4898574;29;20039;-69
2022/05/14 02:47:40;;;;;;;8.38;5.68;;;;;;;;;;4900102;29;20039;-68
2022/05/14 02:50:08;;;;;;;9.80;6.43;;;;;;;;;;4900483;29;20021;-68
2022/05/14 02:52:34;;;;;;;9.10;6.30;;;;;;;;;;4914690;29;20037;-69
2022/05/14 02:55:01;;;;;;;9.45;5.90;;;;;;;;;;4900389;29;20047;-69
2022/05/14 02:57:27;;;;;;;7.70;6.50;;;;;;;;;;4900088;29;20024;-69
2022/05/14 02:59:54;;;;;;;10.15;6.28;;;;;;;;;;4914125;29;20076;-68
2022/05/14 03:02:20;;;;;;;9.13;6.57;;;;;;;;;;4900166;29;20029;-68
2022/05/14 03:04:48;;;;;;;11.45;6.75;;;;;;;;;;4899940;29;20035;-68
2022/05/14 03:07:15;;;;;;;9.95;7.00;;;;;;;;;;4900670;29;20024;-68
2022/05/14 03:09:42;;;;;;;12.93;6.50;;;;;;;;;;4899792;29;20401;-68
2022/05/14 03:12:10;;;;;;;10.40;6.25;;;;;;;;;;4899970;29;20023;-69
2022/05/14 03:14:36;;;;;;;9.52;6.30;;;;;;;;;;4899562;29;20045;-68
2022/05/14 03:17:03;;;;;;;10.63;6.15;;;;;;;;;;4899711;29;20021;-68
2022/05/14 03:19:29;;;;;;;9.38;5.82;;;;;;;;;;4900057;29;20040;-69
2022/05/14 03:21:56;;;;;;;12.43;6.50;;;;;;;;;;4899079;29;20067;-68
2022/05/14 03:24:23;;;;;;;10.52;5.88;;;;;;;;;;4897186;29;20025;-68
2022/05/14 03:26:49;;;;;;;11.27;6.40;;;;;;;;;;4898161;29;20029;-68
2022/05/14 03:29:16;;;;;;;13.93;6.32;;;;;;;;;;4897154;29;20498;-69
2022/05/14 03:31:42;;;;;;;11.63;6.60;;;;;;;;;;4897440;29;20034;-68
2022/05/14 03:34:11;;;;;;;10.10;6.20;;;;;;;;;;4899091;29;20047;-68
2022/05/14 03:36:38;;;;;;;9.25;6.55;;;;;;;;;;4898133;29;20023;-69
2022/05/14 03:39:04;;;;;;;12.32;6.45;;;;;;;;;;4898367;29;20039;-68
2022/05/14 03:41:31;;;;;;;12.85;7.55;;;;;;;;;;4897959;29;20035;-68
2022/05/14 03:43:57;;;;;;;9.98;6.40;;;;;;;;;;4898195;29;20071;-68
2022/05/14 03:46:24;;;;;;;10.27;6.43;;;;;;;;;;4898287;29;20028;-68
2022/05/14 03:48:50;;;;;;;9.57;6.30;;;;;;;;;;4898377;29;20036;-68
2022/05/14 03:51:16;;;;;;;10.07;7.20;;;;;;;;;;4898015;29;20083;-69
2022/05/14 03:53:43;;;;;;;9.32;6.07;;;;;;;;;;4897991;29;20032;-69
2022/05/14 03:56:09;;;;;;;8.95;6.32;;;;;;;;;;4897876;29;20027;-69
2022/05/14 03:58:36;;;;;;;15.73;7.00;;;;;;;;;;4898236;29;20029;-69
2022/05/14 04:01:06;;;;;;;10.35;6.45;;;;;;;;;;4896696;29;20024;-68
2022/05/14 04:03:34;;;;;;;10.00;6.80;;;;;;;;;;4897764;29;20027;-69
2022/05/14 04:06:00;;;;;;;9.18;6.53;;;;;;;;;;4897786;29;20039;-68
2022/05/14 04:08:27;;;;;;;9.40;6.78;;;;;;;;;;4897661;29;20508;-68
2022/05/14 04:10:53;;;;;;;10.85;7.07;;;;;;;;;;4897914;29;20035;-68
2022/05/14 04:13:19;;;;;;;12.68;6.72;;;;;;;;;;4898291;29;20028;-69
2022/05/14 04:15:45;;;;;;;10.02;7.00;;;;;;;;;;4912213;29;20029;-68
2022/05/14 04:18:12;;;;;;;10.18;7.40;;;;;;;;;;4897499;29;20478;-68
2022/05/14 04:20:38;;;;;;;10.90;7.32;;;;;;;;;;4858660;29;1152307;-68
2022/05/14 04:23:05;;;;;;;10.98;7.13;;;;;;;;;;4898378;29;20394;-68
2022/05/14 04:25:32;;;;;;;10.30;6.97;;;;;;;;;;4898179;29;20028;-68
2022/05/14 04:27:59;;;;;;;10.88;8.18;;;;;;;;;;4898692;29;20502;-68
2022/05/14 04:30:26;;;;;;;11.27;8.38;;;;;;;;;;4898515;29;20087;-69
2022/05/14 04:32:52;;;;;;;10.07;7.25;;;;;;;;;;4898093;29;20025;-68
2022/05/14 04:35:18;;;;;;;10.10;6.70;;;;;;;;;;4928629;29;20513;-68
2022/05/14 04:37:45;;;;;;;13.30;6.93;;;;;;;;;;4898473;29;20051;-68
2022/05/14 04:40:11;;;;;;;9.68;6.88;;;;;;;;;;4898586;29;20024;-68
2022/05/14 04:42:38;;;;;;;15.57;6.75;;;;;;;;;;4897742;29;20021;-69
2022/05/14 04:45:05;;;;;;;11.77;6.68;;;;;;;;;;4897935;29;20021;-68
2022/05/14 04:47:32;;;;;;;7.72;6.38;;;;;;;;;;4898165;29;20035;-68
2022/05/14 04:49:58;;;;;;;10.60;6.82;;;;;;;;;;4898032;29;20025;-68
2022/05/14 04:52:24;;;;;;;9.13;6.47;;;;;;;;;;4898040;29;20028;-69
2022/05/14 04:54:51;;;;;;;10.93;6.85;;;;;;;;;;4897864;29;20048;-69
2022/05/14 04:57:17;;;;;;;8.25;6.40;;;;;;;;;;4897626;29;20020;-69
2022/05/14 04:59:43;;;;;;;10.00;6.93;;;;;;;;;;4897638;29;20041;-68
2022/05/14 05:04:55;;;;;;;9.90;6.68;;;;;;;;;;4883508;29;20021;-68
2022/05/14 05:07:21;;;;;;;13.27;6.53;;;;;;;;;;4898296;29;20040;-69
2022/05/14 05:09:48;;;;;;;15.43;7.10;;;;;;;;;;4897366;29;20027;-68
2022/05/14 05:12:14;;;;;;;11.60;7.10;;;;;;;;;;4897562;29;20470;-68
2022/05/14 05:14:41;;;;;;;9.57;6.70;;;;;;;;;;4897402;29;20044;-68
2022/05/14 05:17:08;;;;;;;11.60;7.13;;;;;;;;;;4897427;29;20024;-68
2022/05/14 05:19:34;;;;;;;10.25;6.95;;;;;;;;;;4897605;29;20040;-68
2022/05/14 05:22:01;;;;;;;11.98;7.10;;;;;;;;;;4897729;29;20506;-68
2022/05/14 05:24:27;;;;;;;10.02;7.82;;;;;;;;;;4896937;29;20025;-69
2022/05/14 05:26:53;;;;;;;9.85;7.28;;;;;;;;;;4897369;29;20032;-68
2022/05/14 05:29:20;;;;;;;10.00;7.47;;;;;;;;;;4897380;29;20029;-69
2022/05/14 05:31:46;;;;;;;9.10;6.80;;;;;;;;;;4896113;29;20421;-68
2022/05/14 05:34:12;;;;;;;13.00;7.07;;;;;;;;;;4897587;29;20388;-68
2022/05/14 05:36:39;;;;;;;13.45;7.65;;;;;;;;;;4897326;29;20032;-68
2022/05/14 05:39:05;;;;;;;10.07;7.20;;;;;;;;;;4896699;29;20068;-68
2022/05/14 05:41:31;;;;;;;10.77;6.63;;;;;;;;;;4896895;29;20371;-68
2022/05/14 05:43:58;;;;;;;8.48;7.03;;;;;;;;;;4897320;29;20023;-68
2022/05/14 05:46:24;;;;;;;10.88;7.20;;;;;;;;;;4897276;29;20052;-69
2022/05/14 05:48:50;;;;;;;13.05;6.40;;;;;;;;;;4897341;29;20075;-68
2022/05/14 05:51:17;;;;;;;10.00;7.35;;;;;;;;;;4897061;29;20024;-68
2022/05/14 05:56:46;;;;;;;9.75;7.00;;;;;;;;;;4896583;29;20020;-68
2022/05/14 05:59:14;;;;;;;9.40;6.97;;;;;;;;;;4897232;29;20034;-68
2022/05/14 06:01:40;;;;;;;16.00;7.05;;;;;;;;;;4897179;29;20037;-68
2022/05/14 06:04:07;;;;;;;12.52;7.13;;;;;;;;;;4897416;29;20042;-68
2022/05/14 06:06:33;;;;;;;12.38;6.65;;;;;;;;;;4896564;29;20481;-68
2022/05/14 06:09:00;;;;;;;8.75;7.35;;;;;;;;;;4896728;29;20027;-68
2022/05/14 06:11:27;;;;;;;10.38;7.07;;;;;;;;;;4896787;29;20033;-68
2022/05/14 06:13:53;;;;;;;10.50;6.35;;;;;;;;;;4896728;29;20451;-68
2022/05/14 06:16:19;;;;;;;13.75;6.38;;;;;;;;;;4897149;29;20029;-68
2022/05/14 06:18:46;;;;;;;7.70;6.10;;;;;;;;;;4896647;29;20028;-68
2022/05/14 06:21:12;;;;;;;9.68;6.20;;;;;;;;;;4896074;29;20051;-68
2022/05/14 06:23:39;;;;;;;11.75;6.13;;;;;;;;;;4896634;29;20088;-68
2022/05/14 06:26:06;;;;;;;8.52;5.78;;;;;;;;;;4896849;29;20021;-69
2022/05/14 06:28:32;;;;;;;9.05;5.43;;;;;;;;;;4911245;29;20043;-68
2022/05/14 06:30:59;;;;;;;10.25;5.88;;;;;;;;;;4897457;29;20035;-68
2022/05/14 06:33:28;;;;;;;9.82;6.15;;;;;;;;;;4896575;29;20031;-68
2022/05/14 06:35:54;;;;;;;9.73;5.65;;;;;;;;;;4896415;29;20025;-69
2022/05/14 06:38:21;;;;;;;8.98;5.80;;;;;;;;;;4896524;29;20021;-68
2022/05/14 06:40:47;;;;;;;6.75;5.22;;;;;;;;;;4896545;29;20035;-69
2022/05/14 06:43:17;;;;;;;8.90;5.55;;;;;;;;;;4897310;29;20043;-68
2022/05/14 06:45:43;;;;;;;11.35;5.88;;;;;;;;;;4896447;29;20032;-68
2022/05/14 06:48:10;;;;;;;6.75;5.57;;;;;;;;;;4896354;29;20025;-68
2022/05/14 06:50:41;;;;;;;9.18;5.25;;;;;;;;;;4896031;29;20092;-68
2022/05/14 06:53:08;;;;;;;13.50;5.15;;;;;;;;;;4896525;29;20017;-68
2022/05/14 06:55:36;;;;;;;13.27;5.40;;;;;;;;;;4896628;29;20041;-68
2022/05/14 06:58:03;;;;;;;11.60;5.53;;;;;;;;;;4896844;29;20029;-69
2022/05/14 07:00:29;;;;;;;9.45;5.53;;;;;;;;;;4896287;29;20025;-69
2022/05/14 07:06:37;;;;;;;8.90;5.32;;;;;;;;;;4896411;29;20055;-69
2022/05/14 07:08:27;;;;;;;8.02;5.20;;;;;;;;;;4899785;29;20021;-69
2022/05/14 07:10:53;;;;;;;7.32;4.97;;;;;;;;;;4900106;29;20029;-69
2022/05/14 07:13:19;;;;;;;8.02;5.45;;;;;;;;;;4900467;29;20032;-69
2022/05/14 07:15:46;;;;;;;8.57;4.82;;;;;;;;;;4899975;29;20041;-69
2022/05/14 07:18:12;;;;;;;9.75;4.90;;;;;;;;;;4899606;29;20035;-69
2022/05/14 07:20:38;;;;;;;5.80;5.20;;;;;;;;;;4899213;29;20051;-68
2022/05/14 07:23:05;;;;;;;9.73;5.00;;;;;;;;;;4899599;29;20016;-69
2022/05/14 07:25:32;;;;;;;7.47;4.32;;;;;;;;;;4899574;29;20029;-69
2022/05/14 07:27:58;;;;;;;7.90;5.40;;;;;;;;;;4900151;29;20039;-69
2022/05/14 07:30:25;;;;;;;6.28;5.03;;;;;;;;;;4899356;29;20021;-69
2022/05/14 07:32:51;;;;;;;6.03;4.65;;;;;;;;;;4899432;29;20545;-69
2022/05/14 07:35:18;;;;;;;7.45;4.80;;;;;;;;;;4899080;29;20067;-69
2022/05/14 07:37:46;;;;;;;8.45;4.70;;;;;;;;;;4899161;29;20020;-69
2022/05/14 07:40:15;;;;;;;6.65;4.47;;;;;;;;;;4900063;29;20045;-69
2022/05/14 07:42:44;;;;;;;8.73;4.97;;;;;;;;;;4899380;29;20028;-69
2022/05/14 07:45:15;;;;;;;6.82;4.63;;;;;;;;;;4899016;29;20447;-69
2022/05/14 07:47:41;;;;;;;10.05;4.65;;;;;;;;;;4898594;29;20055;-68
2022/05/14 07:50:08;;;;;;;6.70;4.43;;;;;;;;;;4899347;29;20025;-69
2022/05/14 07:52:35;;;;;;;7.95;4.35;;;;;;;;;;4899180;29;20037;-69
2022/05/14 07:55:02;;;;;;;7.38;4.32;;;;;;;;;;4897495;29;20071;-68
2022/05/14 07:57:28;;;;;;;9.57;5.00;;;;;;;;;;4898815;29;20512;-69
2022/05/14 07:59:54;;;;;;;7.38;4.40;;;;;;;;;;4899199;29;20039;-69
2022/05/14 08:02:31;;;;;;;9.05;4.78;;;;;;;;;;4898522;29;20064;-69
2022/05/14 08:05:01;;;;;;;7.47;4.65;;;;;;;;;;4884823;29;20023;-68
2022/05/14 08:07:27;;;;;;;6.32;4.55;;;;;;;;;;4899048;29;20043;-68
2022/05/14 08:09:54;;;;;;;8.35;4.47;;;;;;;;;;4898132;29;20048;-69
2022/05/14 08:12:20;;;;;;;10.25;4.80;;;;;;;;;;4898639;29;20023;-68
2022/05/14 08:14:46;;;;;;;6.20;4.53;;;;;;;;;;4898626;29;20051;-69
2022/05/14 08:17:13;;;;;;;6.85;4.45;;;;;;;;;;4897985;29;20028;-68
2022/05/14 08:19:39;;;;;;;6.70;4.57;;;;;;;;;;4898538;29;20405;-68
2022/05/14 08:24:50;;;;;;;6.40;4.75;;;;;;;;;;4898567;29;20029;-69
2022/05/14 08:27:17;;;;;;;6.55;4.35;;;;;;;;;;4898614;29;20058;-68
2022/05/14 08:29:47;;;;;;;8.38;4.22;;;;;;;;;;4898312;29;20031;-69
2022/05/14 08:32:14;;;;;;;5.35;4.45;;;;;;;;;;4897942;29;20399;-69
2022/05/14 08:34:41;;;;;;;4.32;3.92;;;;;;;;;;4898159;29;20219;-69
2022/05/14 08:37:07;;;;;;;4.43;4.03;;;;;;;;;;4899113;29;20043;-69
2022/05/14 08:39:33;;;;;;;4.32;3.92;;;;;;;;;;4898208;29;20364;-69
2022/05/14 08:42:00;;;;;;;5.22;4.00;;;;;;;;;;4898101;29;20044;-69
2022/05/14 08:44:30;;;;;;;5.05;3.92;;;;;;;;;;4898283;29;20039;-69
2022/05/14 08:46:59;;;;;;;12.38;4.43;;;;;;;;;;4897667;29;20033;-69
2022/05/14 08:49:33;;;;;;;8.20;4.05;;;;;;;;;;4898400;29;20516;-69
2022/05/14 08:52:00;;;;;;;5.70;3.90;;;;;;;;;;4898276;29;20474;-69
2022/05/14 08:54:27;;;;;;;5.93;4.00;;;;;;;;;;4897934;29;20045;-69
2022/05/14 08:57:02;;;;;;;5.35;4.05;;;;;;;;;;4897641;29;20498;-69
2022/05/14 08:59:28;;;;;;;10.23;3.70;;;;;;;;;;4897819;29;20021;-69
2022/05/14 09:02:00;;;;;;;6.72;4.10;;;;;;;;;;4897480;29;20482;-69
2022/05/14 09:04:26;;;;;;;7.82;4.00;;;;;;;;;;4898034;29;20557;-69
2022/05/14 09:06:53;;;;;;;4.88;3.75;;;;;;;;;;4898326;29;20032;-69
2022/05/14 09:09:19;;;;;;;5.68;4.10;;;;;;;;;;4897541;29;20054;-68
2022/05/14 09:11:47;;;;;;;6.60;4.38;;;;;;;;;;4897604;29;20021;-69
2022/05/14 09:14:34;;;;;;;6.93;4.40;;;;;;;;;;4897774;29;20029;-69
2022/05/14 09:17:06;;;;;;;7.13;4.10;;;;;;;;;;4883477;29;20045;-69
2022/05/14 09:19:43;;;;;;;5.07;4.07;;;;;;;;;;4897751;29;20024;-69
2022/05/14 09:22:26;;;;;;;9.20;3.97;;;;;;;;;;4896765;29;20057;-69
2022/05/14 09:24:54;;;;;;;6.68;3.35;;;;;;;;;;4897594;29;20495;-69
2022/05/14 09:27:26;;;;;;;7.15;3.90;;;;;;;;;;4895987;29;20024;-69
2022/05/14 09:29:56;;;;;;;4.30;3.75;;;;;;;;;;4896046;29;20032;-69
2022/05/14 09:32:22;;;;;;;3.85;3.45;;;;;;;;;;4897292;29;20071;-67
2022/05/14 09:34:49;;;;;;;6.47;3.53;;;;;;;;;;4897180;29;20028;-67
2022/05/14 09:37:20;;;;;;;6.85;3.70;;;;;;;;;;4898169;29;20036;-67
2022/05/14 09:39:56;;;;;;;3.58;3.10;;;;;;;;;;4897371;29;20419;-67
2022/05/14 09:42:24;;;;;;;6.18;3.80;;;;;;;;;;4897222;29;20021;-67
2022/05/14 09:44:52;;;;;;;5.00;3.50;;;;;;;;;;4896612;29;20044;-67
2022/05/14 09:47:24;;;;;;;6.57;3.28;;;;;;;;;;4897150;29;20028;-67
2022/05/14 09:49:59;;;;;;;10.07;3.20;;;;;;;;;;4882378;29;20405;-67
2022/05/14 09:52:33;;;;;;;3.83;2.80;;;;;;;;;;4894059;29;20398;-67
2022/05/14 09:55:01;;;;;;;3.10;2.33;;;;;;;;;;4897097;29;20400;-67
2022/05/14 09:57:31;;;;;;;8.88;2.80;;;;;;;;;;4896847;29;20023;-67
2022/05/14 10:00:03;;;;;;;4.93;2.42;;;;;;;;;;4896468;29;20029;-67
2022/05/14 10:02:41;;;;;;;11.75;2.95;;;;;;;;;;4896828;29;20017;-67
2022/05/14 10:05:27;;;;;;;4.07;2.63;;;;;;;;;;4896829;29;20513;-67
2022/05/14 10:07:53;;;;;;;5.20;2.72;;;;;;;;;;4882310;29;20021;-67
2022/05/14 10:10:43;;;;;;;4.20;2.47;;;;;;;;;;4897368;29;20028;-66
2022/05/14 10:13:25;;;;;;;3.53;2.42;;;;;;;;;;4896066;29;20032;-69
2022/05/14 10:16:03;;;;;;;5.65;2.13;;;;;;;;;;4896893;29;20044;-67
2022/05/14 10:18:30;;;;;;;4.47;2.10;;;;;;;;;;4896836;29;20496;-69
2022/05/14 10:20:56;;;;;;;2.63;2.17;;;;;;;;;;4896454;29;20040;-69
2022/05/14 10:29:15;;;;;;;4.90;2.22;;;;;;;;;;4896608;29;20016;-69
2022/05/14 10:31:50;;;;;;;3.47;1.90;;;;;;;;;;4895946;29;20066;-69
2022/05/14 10:34:19;;;;;;;3.20;1.80;;;;;;;;;;4897576;29;20032;-69
2022/05/14 10:36:48;;;;;;;5.15;2.10;;;;;;;;;;4897289;29;20486;-69
2022/05/14 10:39:25;;;;;;;3.63;2.00;;;;;;;;;;4896912;29;20031;-69
2022/05/14 10:41:57;;;;;;;4.63;1.75;;;;;;;;;;4898798;29;20513;-68
2022/05/14 10:44:39;;;;;;;1.58;1.48;;;;;;;;;;4900400;29;20025;-68
2022/05/14 10:47:09;;;;;;;4.38;2.10;;;;;;;;;;4887308;29;20028;-68
2022/05/14 10:49:41;;;;;;;3.35;1.83;;;;;;;;;;4900557;29;20029;-69
2022/05/14 10:52:11;;;;;;;3.72;1.80;;;;;;;;;;4899480;29;20039;-69
2022/05/14 10:54:38;;;;;;;3.25;1.60;;;;;;;;;;4900075;29;20490;-68
2022/05/14 10:57:14;;;;;;;5.00;1.80;;;;;;;;;;4899679;29;20030;-68
2022/05/14 10:59:41;;;;;;;2.20;1.63;;;;;;;;;;4900420;29;20021;-68
2022/05/14 11:02:08;;;;;;;4.03;1.77;;;;;;;;;;4900410;29;20036;-68
2022/05/14 11:04:51;;;;;;;1.77;1.60;;;;;;;;;;4900143;29;20060;-68
2022/05/14 11:07:38;;;;;;;4.18;1.80;;;;;;;;;;4900562;29;20043;-69
2022/05/14 11:10:07;;;;;;;5.13;1.80;;;;;;;;;;4929124;29;20516;-68
2022/05/14 11:12:33;;;;;;;;;;;;;;;;;;4899855;29;20490;-68
2022/05/14 11:15:01;;;;;;;3.28;1.77;;;;;;;;;;4899675;29;20280;-69
2022/05/14 11:17:35;;;;;;;3.90;1.60;;;;;;;;;;4899749;29;20028;-69
2022/05/14 11:20:05;;;;;;;3.53;1.75;;;;;;;;;;4899712;29;20513;-69
2022/05/14 11:22:33;;;;;;;8.05;1.45;;;;;;;;;;4899712;29;20041;-69
2022/05/14 11:25:14;;;;;;;2.75;1.80;;;;;;;;;;4899951;29;20494;-69
2022/05/14 11:27:41;;;;;;;3.53;1.70;;;;;;;;;;4929852;29;20040;-68
2022/05/14 11:30:10;;;;;;;3.10;2.20;;;;;;;;;;4899194;29;20021;-68
2022/05/14 11:32:40;;;;;;;2.20;1.70;;;;;;;;;;4899375;29;20060;-69
2022/05/14 11:35:06;;;;;;;;;;;;;;;;;;4898818;29;20050;-68
2022/05/14 11:37:33;;;;;;;3.40;1.52;;;;;;;;;;4899746;29;19915;-69
2022/05/14 11:40:17;;;;;;;3.47;1.77;;;;;;;;;;4899468;29;20561;-69
2022/05/14 11:42:44;;;;;;;4.38;1.85;;;;;;;;;;4899398;29;20037;-69
2022/05/14 11:45:26;;;;;;;3.22;1.50;;;;;;;;;;4898035;29;20039;-69
2022/05/14 11:48:02;;;;;;;3.63;1.67;;;;;;;;;;4899316;29;20498;-69
2022/05/14 11:50:32;;;;;;;3.10;1.90;;;;;;;;;;4899082;29;20517;-69
2022/05/14 11:53:01;;;;;;;3.72;1.50;;;;;;;;;;4898417;29;20040;-69
2022/05/14 11:55:48;;;;;;;1.60;1.50;;;;;;;;;;4899029;29;20017;-69
2022/05/14 11:58:25;;;;;;;3.45;1.75;;;;;;;;;;4899612;29;20032;-68
2022/05/14 12:00:53;;;;;;;2.78;1.52;;;;;;;;;;4899188;29;20402;-68
2022/05/14 12:03:21;;;;;;;2.50;1.58;;;;;;;;;;4898996;29;20020;-68
2022/05/14 12:05:53;;;;;;;4.57;1.80;;;;;;;;;;4898848;29;20395;-69
2022/05/14 12:08:19;;;;;;;6.38;1.58;;;;;;;;;;4899139;29;20025;-69
2022/05/14 12:10:52;;;;;;;2.65;1.80;;;;;;;;;;4898378;29;20035;-69
2022/05/14 12:13:21;;;;;;;3.60;1.90;;;;;;;;;;4895567;29;20383;-69
2022/05/14 12:15:49;;;;;;;1.95;1.52;;;;;;;;;;4899004;29;20409;-69
2022/05/14 12:18:16;;;;;;;5.00;1.80;;;;;;;;;;4898680;29;20029;-68
2022/05/14 12:20:44;;;;;;;5.22;1.83;;;;;;;;;;4898794;29;20410;-69
2022/05/14 12:23:16;;;;;;;2.85;1.73;;;;;;;;;;4898719;29;20024;-71
2022/05/14 12:25:52;;;;;;;4.85;1.80;;;;;;;;;;4898712;29;20060;-68
2022/05/14 12:28:20;;;;;;;6.55;1.77;;;;;;;;;;4895300;29;20028;-69
2022/05/14 12:33:51;;;;;;;2.63;1.88;;;;;;;;;;4898546;29;20028;-68
2022/05/14 12:36:18;;;;;;;4.43;1.80;;;;;;;;;;4898250;29;20035;-68
2022/05/14 12:38:44;;;;;;;3.67;1.80;;;;;;;;;;4898006;29;20024;-68
2022/05/14 12:41:41;;;;;;;3.17;1.70;;;;;;;;;;4898620;29;20385;-68
2022/05/14 12:44:17;;;;;;;3.90;1.70;;;;;;;;;;4884843;29;20413;-68
2022/05/14 12:46:46;;;;;;;3.95;1.70;;;;;;;;;;4898442;29;20036;-68
2022/05/14 12:49:16;;;;;;;3.78;1.60;;;;;;;;;;4899015;29;20040;-68
2022/05/14 12:51:47;;;;;;;2.70;1.70;;;;;;;;;;4898305;29;20021;-69
2022/05/14 12:54:22;;;;;;;5.53;1.75;;;;;;;;;;4897548;29;20037;-69
2022/05/14 12:56:50;;;;;;;6.97;2.00;;;;;;;;;;4897898;29;20478;-68
2022/05/14 12:59:16;;;;;;;5.15;1.80;;;;;;;;;;4898034;29;20029;-68
2022/05/14 13:01:43;;;;;;;4.05;1.73;;;;;;;;;;4897879;29;20043;-68
2022/05/14 13:04:10;;;;;;;4.35;1.60;;;;;;;;;;4898070;29;20040;-68
2022/05/14 13:06:41;;;;;;;8.20;1.80;;;;;;;;;;4897586;29;20035;-68
2022/05/14 13:09:10;;;;;;;2.72;1.50;;;;;;;;;;4897889;29;20036;-68
2022/05/14 13:11:44;;;;;;;3.67;1.70;;;;;;;;;;4898010;29;20013;-68
2022/05/14 13:14:23;;;;;;;2.35;1.60;;;;;;;;;;4897684;29;20035;-68
2022/05/14 13:16:57;;;;;;;3.22;1.60;;;;;;;;;;4897601;29;20033;-68
2022/05/14 13:19:44;;;;;;;2.92;1.90;;;;;;;;;;4894423;29;20036;-68
2022/05/14 13:22:25;;;;;;;4.43;1.50;;;;;;;;;;4896709;29;20037;-69
2022/05/14 13:24:53;;;;;;;3.92;1.80;;;;;;;;;;4897668;29;20044;-68
2022/05/14 13:27:28;;;;;;;4.90;1.70;;;;;;;;;;4897620;29;20098;-68
2022/05/14 13:30:00;;;;;;;3.60;1.73;;;;;;;;;;4897315;29;20013;-68
2022/05/14 13:32:28;;;;;;;4.13;1.80;;;;;;;;;;4897339;29;20031;-69
2022/05/14 13:37:52;;;;;;;1.98;1.52;;;;;;;;;;4897083;29;20029;-68
2022/05/14 13:40:18;;;;;;;4.55;1.92;;;;;;;;;;4898116;29;20036;-68
2022/05/14 13:42:45;;;;;;;3.03;1.70;;;;;;;;;;4897098;29;20397;-68
2022/05/14 13:45:17;;;;;;;5.00;1.70;;;;;;;;;;4896919;29;20036;-68
2022/05/14 13:47:47;;;;;;;2.95;1.60;;;;;;;;;;4897252;29;20031;-68
2022/05/14 13:50:14;;;;;;;;;;;;;;;;;;4927559;29;20041;-69
2022/05/14 13:52:49;;;;;;;2.80;1.45;;;;;;;;;;4897567;29;19915;-68
2022/05/14 13:55:17;;;;;;;6.93;1.70;;;;;;;;;;4897555;29;20032;-68
2022/05/14 13:57:53;;;;;;;4.53;2.10;;;;;;;;;;4896872;29;20032;-68
2022/05/14 14:00:21;;;;;;;3.63;1.70;;;;;;;;;;4896885;29;20039;-68
2022/05/14 14:03:04;;;;;;;5.25;1.70;;;;;;;;;;4897032;29;20020;-68
2022/05/14 14:05:32;;;;;;;5.85;1.60;;;;;;;;;;4896616;29;20091;-68
2022/05/14 14:07:58;;;;;;;6.38;1.60;;;;;;;;;;4896863;29;20032;-68
2022/05/14 14:10:33;;;;;;;5.30;1.60;;;;;;;;;;4911998;29;20043;-68
2022/05/14 14:13:04;;;;;;;7.05;1.70;;;;;;;;;;4897273;29;20033;-68
2022/05/14 14:15:34;;;;;;;4.22;1.80;;;;;;;;;;4898566;29;20024;-68
2022/05/14 14:18:01;;;;;;;3.80;1.73;;;;;;;;;;4903054;29;20017;-68
2022/05/14 14:20:29;;;;;;;2.42;1.50;;;;;;;;;;4902357;29;20645;-68
2022/05/14 14:22:56;;;;;;;4.07;1.75;;;;;;;;;;4903328;29;20042;-69
2022/05/14 14:25:22;;;;;;;4.50;1.65;;;;;;;;;;4903616;29;20040;-68
2022/05/14 14:27:49;;;;;;;6.40;1.77;;;;;;;;;;4903650;29;20032;-68
2022/05/14 14:30:16;;;;;;;3.88;1.60;;;;;;;;;;4903299;29;20031;-68
2022/05/14 14:32:42;;;;;;;5.40;1.55;;;;;;;;;;4903110;29;20036;-68
2022/05/14 14:35:09;;;;;;;7.85;1.50;;;;;;;;;;4902894;29;20042;-68
2022/05/14 14:37:39;;;;;;;3.78;1.60;;;;;;;;;;4917570;29;20021;-68
2022/05/14 14:40:07;;;;;;;3.35;1.50;;;;;;;;;;4901749;29;20070;-68
2022/05/14 14:42:33;;;;;;;6.70;1.58;;;;;;;;;;4902984;29;20017;-68
2022/05/14 14:45:00;;;;;;;9.88;1.77;;;;;;;;;;4902690;29;20036;-68
2022/05/14 14:47:26;;;;;;;3.75;1.75;;;;;;;;;;4902601;29;20080;-68
2022/05/14 14:49:52;;;;;;;3.08;1.40;;;;;;;;;;4902708;29;20469;-68
2022/05/14 14:52:19;;;;;;;3.13;1.50;;;;;;;;;;4933941;29;20031;-68
2022/05/14 14:54:45;;;;;;;4.20;1.70;;;;;;;;;;4903096;29;20054;-68
2022/05/14 14:57:11;;;;;;;3.35;1.55;;;;;;;;;;4902669;29;20028;-68
2022/05/14 14:59:37;;;;;;;3.65;1.40;;;;;;;;;;4902837;29;20513;-68
2022/05/14 15:02:06;;;;;;;4.15;1.85;;;;;;;;;;4903370;29;20035;-68
2022/05/14 15:04:51;;;;;;;2.53;1.52;;;;;;;;;;4902472;29;20395;-68
2022/05/14 15:07:20;;;;;;;3.75;1.50;;;;;;;;;;4903045;29;20027;-68
2022/05/14 15:09:47;;;;;;;4.97;1.75;;;;;;;;;;4902471;29;20397;-68
2022/05/14 15:12:14;;;;;;;3.03;1.75;;;;;;;;;;4902848;29;20042;-69
2022/05/14 15:14:41;;;;;;;6.75;1.55;;;;;;;;;;4902549;29;20087;-68
2022/05/14 15:17:08;;;;;;;3.88;1.77;;;;;;;;;;4902601;29;20397;-68
2022/05/14 15:19:34;;;;;;;2.53;1.60;;;;;;;;;;4902710;29;20035;-68